sensor_id;sensor_type;location;lat;lon;timestamp;temperature;humidity
20438;DHT22;17436;50.338;8.810;2022-07-21T00:01:50;22.50;99.90
20438;DHT22;17436;50.338;8.810;2022-07-21T00:04:18;22.50;99.90
20438;DHT22;17436;50.338;8.810;2022-07-21T00:06:45;22.50;99.90
20438;DHT22;17436;50.338;8.810;2022-07-21T00:09:13;22.80;99.90
20438;DHT22;17436;50.338;8.810;2022-07-21T00:11:40;22.70;99.90
20438;DHT22;17436;50.338;8.810;2022-07-21T00:14:09;22.50;99.90
20438;DHT22;17436;50.338;8.810;2022-07-21T00:16:38;22.60;99.90
20438;DHT22;17436;50.338;8.810;2022-07-21T00:19:05;22.60;99.90
20438;DHT22;17436;50.338;8.810;2022-07-21T00:21:33;22.70;99.90
20438;DHT22;17436;50.338;8.810;2022-07-21T00:23:59;22.90;99.90
20438;DHT22;17436;50.338;8.810;2022-07-21T00:26:26;23.00;99.90
20438;DHT22;17436;50.338;8.810;2022-07-21T00:28:54;23.00;99.90
20438;DHT22;17436;50.338;8.810;2022-07-21T00:31:22;23.00;99.90
20438;DHT22;17436;50.338;8.810;2022-07-21T00:33:50;23.00;99.90
20438;DHT22;17436;50.338;8.810;2022-07-21T00:36:17;22.90;99.90
20438;DHT22;17436;50.338;8.810;2022-07-21T00:38:44;23.10;99.90
20438;DHT22;17436;50.338;8.810;2022-07-21T00:41:11;23.10;99.90
20438;DHT22;17436;50.338;8.810;2022-07-21T00:43:37;23.10;99.90
20438;DHT22;17436;50.338;8.810;2022-07-21T00:46:05;22.90;99.90
20438;DHT22;17436;50.338;8.810;2022-07-21T00:48:31;22.70;99.90
20438;DHT22;17436;50.338;8.810;2022-07-21T00:51:01;22.60;99.90
20438;DHT22;17436;50.338;8.810;2022-07-21T00:53:28;22.40;99.90
20438;DHT22;17436;50.338;8.810;2022-07-21T00:55:55;22.40;99.90
20438;DHT22;17436;50.338;8.810;2022-07-21T00:58:22;22.20;99.90
20438;DHT22;17436;50.338;8.810;2022-07-21T01:00:50;22.20;99.90
20438;DHT22;17436;50.338;8.810;2022-07-21T01:03:18;22.20;99.90
20438;DHT22;17436;50.338;8.810;2022-07-21T01:05:44;22.30;99.90
20438;DHT22;17436;50.338;8.810;2022-07-21T01:08:13;22.40;99.90
20438;DHT22;17436;50.338;8.810;2022-07-21T01:10:40;22.50;99.90
20438;DHT22;17436;50.338;8.810;2022-07-21T01:13:07;22.80;99.90
20438;DHT22;17436;50.338;8.810;2022-07-21T01:15:34;22.90;99.90
20438;DHT22;17436;50.338;8.810;2022-07-21T01:18:01;22.90;99.90
20438;DHT22;17436;50.338;8.810;2022-07-21T01:20:32;22.90;99.90
20438;DHT22;17436;50.338;8.810;2022-07-21T01:23:01;22.90;99.90
20438;DHT22;17436;50.338;8.810;2022-07-21T01:25:29;23.00;99.90
20438;DHT22;17436;50.338;8.810;2022-07-21T01:27:56;22.90;99.90
20438;DHT22;17436;50.338;8.810;2022-07-21T01:30:23;22.90;99.90
20438;DHT22;17436;50.338;8.810;2022-07-21T01:32:49;22.90;99.90
20438;DHT22;17436;50.338;8.810;2022-07-21T01:35:17;22.80;99.90
20438;DHT22;17436;50.338;8.810;2022-07-21T01:37:46;22.70;99.90
20438;DHT22;17436;50.338;8.810;2022-07-21T01:40:16;22.80;99.90
20438;DHT22;17436;50.338;8.810;2022-07-21T01:43:02;22.80;99.90
20438;DHT22;17436;50.338;8.810;2022-07-21T01:45:29;22.80;99.90
20438;DHT22;17436;50.338;8.810;2022-07-21T01:47:56;22.80;99.90
20438;DHT22;17436;50.338;8.810;2022-07-21T01:50:22;22.80;99.90
20438;DHT22;17436;50.338;8.810;2022-07-21T01:52:54;22.70;99.90
20438;DHT22;17436;50.338;8.810;2022-07-21T01:55:25;22.80;99.90
20438;DHT22;17436;50.338;8.810;2022-07-21T01:57:53;22.70;99.90
20438;DHT22;17436;50.338;8.810;2022-07-21T02:00:20;22.60;99.90
20438;DHT22;17436;50.338;8.810;2022-07-21T02:02:47;22.40;99.90
20438;DHT22;17436;50.338;8.810;2022-07-21T02:05:14;22.30;99.90
20438;DHT22;17436;50.338;8.810;2022-07-21T02:07:41;22.40;99.90
20438;DHT22;17436;50.338;8.810;2022-07-21T02:10:09;22.40;99.90
20438;DHT22;17436;50.338;8.810;2022-07-21T02:12:37;22.40;99.90
20438;DHT22;17436;50.338;8.810;2022-07-21T02:15:04;22.10;99.90
20438;DHT22;17436;50.338;8.810;2022-07-21T02:17:31;22.00;99.90
20438;DHT22;17436;50.338;8.810;2022-07-21T02:19:59;22.10;99.90
20438;DHT22;17436;50.338;8.810;2022-07-21T02:22:27;22.10;99.90
20438;DHT22;17436;50.338;8.810;2022-07-21T02:24:54;21.70;99.90
20438;DHT22;17436;50.338;8.810;2022-07-21T02:27:22;21.80;99.90
20438;DHT22;17436;50.338;8.810;2022-07-21T02:29:50;21.70;99.90
20438;DHT22;17436;50.338;8.810;2022-07-21T02:32:17;21.90;99.90
20438;DHT22;17436;50.338;8.810;2022-07-21T02:34:43;22.00;99.90
20438;DHT22;17436;50.338;8.810;2022-07-21T02:37:10;22.00;99.90
20438;DHT22;17436;50.338;8.810;2022-07-21T02:39:37;22.00;99.90
20438;DHT22;17436;50.338;8.810;2022-07-21T02:42:04;21.80;98.50
20438;DHT22;17436;50.338;8.810;2022-07-21T02:44:31;21.50;99.60
20438;DHT22;17436;50.338;8.810;2022-07-21T02:47:01;21.60;99.00
20438;DHT22;17436;50.338;8.810;2022-07-21T02:49:28;21.60;99.90
20438;DHT22;17436;50.338;8.810;2022-07-21T02:51:55;21.50;98.70
20438;DHT22;17436;50.338;8.810;2022-07-21T02:54:21;21.50;96.90
20438;DHT22;17436;50.338;8.810;2022-07-21T02:56:49;21.40;98.00
20438;DHT22;17436;50.338;8.810;2022-07-21T02:59:16;21.40;98.30
20438;DHT22;17436;50.338;8.810;2022-07-21T03:01:43;21.40;97.40
20438;DHT22;17436;50.338;8.810;2022-07-21T03:04:11;21.60;96.80
20438;DHT22;17436;50.338;8.810;2022-07-21T03:06:38;21.50;96.80
20438;DHT22;17436;50.338;8.810;2022-07-21T03:09:05;21.40;96.30
20438;DHT22;17436;50.338;8.810;2022-07-21T03:11:32;21.50;96.30
20438;DHT22;17436;50.338;8.810;2022-07-21T03:13:59;21.30;97.00
20438;DHT22;17436;50.338;8.810;2022-07-21T03:16:26;21.40;97.50
20438;DHT22;17436;50.338;8.810;2022-07-21T03:18:53;21.30;96.60
20438;DHT22;17436;50.338;8.810;2022-07-21T03:21:21;21.20;95.70
20438;DHT22;17436;50.338;8.810;2022-07-21T03:23:48;21.20;96.60
20438;DHT22;17436;50.338;8.810;2022-07-21T03:26:16;21.30;95.60
20438;DHT22;17436;50.338;8.810;2022-07-21T03:28:44;21.00;97.40
20438;DHT22;17436;50.338;8.810;2022-07-21T03:31:11;21.30;96.10
20438;DHT22;17436;50.338;8.810;2022-07-21T03:33:37;21.40;95.00
20438;DHT22;17436;50.338;8.810;2022-07-21T03:36:05;21.50;94.40
20438;DHT22;17436;50.338;8.810;2022-07-21T03:38:33;21.40;94.50
20438;DHT22;17436;50.338;8.810;2022-07-21T03:41:01;21.00;97.50
20438;DHT22;17436;50.338;8.810;2022-07-21T03:43:28;21.30;95.30
20438;DHT22;17436;50.338;8.810;2022-07-21T03:45:55;21.40;94.40
20438;DHT22;17436;50.338;8.810;2022-07-21T03:48:22;21.40;95.90
20438;DHT22;17436;50.338;8.810;2022-07-21T03:50:49;21.30;93.20
20438;DHT22;17436;50.338;8.810;2022-07-21T03:53:15;21.30;95.40
20438;DHT22;17436;50.338;8.810;2022-07-21T03:55:43;21.30;95.60
20438;DHT22;17436;50.338;8.810;2022-07-21T03:58:11;21.10;96.90
20438;DHT22;17436;50.338;8.810;2022-07-21T04:00:41;21.30;96.80
20438;DHT22;17436;50.338;8.810;2022-07-21T04:03:08;21.50;95.90
20438;DHT22;17436;50.338;8.810;2022-07-21T04:05:36;21.50;96.30
20438;DHT22;17436;50.338;8.810;2022-07-21T04:08:04;21.60;96.50
20438;DHT22;17436;50.338;8.810;2022-07-21T04:10:33;21.60;96.40
20438;DHT22;17436;50.338;8.810;2022-07-21T04:13:05;21.60;95.50
20438;DHT22;17436;50.338;8.810;2022-07-21T04:15:32;21.50;94.50
20438;DHT22;17436;50.338;8.810;2022-07-21T04:17:59;21.50;92.70
20438;DHT22;17436;50.338;8.810;2022-07-21T04:20:26;21.50;93.80
20438;DHT22;17436;50.338;8.810;2022-07-21T04:22:53;21.60;93.60
20438;DHT22;17436;50.338;8.810;2022-07-21T04:25:22;21.60;93.20
20438;DHT22;17436;50.338;8.810;2022-07-21T04:27:49;21.50;91.20
20438;DHT22;17436;50.338;8.810;2022-07-21T04:30:19;21.50;93.00
20438;DHT22;17436;50.338;8.810;2022-07-21T04:32:47;21.40;92.50
20438;DHT22;17436;50.338;8.810;2022-07-21T04:35:14;21.20;93.60
20438;DHT22;17436;50.338;8.810;2022-07-21T04:37:41;21.10;92.90
20438;DHT22;17436;50.338;8.810;2022-07-21T04:40:10;21.00;94.20
20438;DHT22;17436;50.338;8.810;2022-07-21T04:42:37;21.10;93.70
20438;DHT22;17436;50.338;8.810;2022-07-21T04:45:06;21.20;95.00
20438;DHT22;17436;50.338;8.810;2022-07-21T04:47:43;21.30;96.00
20438;DHT22;17436;50.338;8.810;2022-07-21T04:50:11;21.20;95.20
20438;DHT22;17436;50.338;8.810;2022-07-21T04:52:38;21.50;95.10
20438;DHT22;17436;50.338;8.810;2022-07-21T04:55:06;21.50;90.80
20438;DHT22;17436;50.338;8.810;2022-07-21T04:57:36;21.70;93.50
20438;DHT22;17436;50.338;8.810;2022-07-21T05:00:05;21.70;91.10
20438;DHT22;17436;50.338;8.810;2022-07-21T05:02:32;21.70;86.10
20438;DHT22;17436;50.338;8.810;2022-07-21T05:05:02;21.80;91.20
20438;DHT22;17436;50.338;8.810;2022-07-21T05:07:29;21.80;92.30
20438;DHT22;17436;50.338;8.810;2022-07-21T05:09:55;22.00;90.80
20438;DHT22;17436;50.338;8.810;2022-07-21T05:12:24;22.60;84.30
20438;DHT22;17436;50.338;8.810;2022-07-21T05:14:51;22.80;78.80
20438;DHT22;17436;50.338;8.810;2022-07-21T05:17:18;23.40;75.20
20438;DHT22;17436;50.338;8.810;2022-07-21T05:19:44;23.30;69.90
20438;DHT22;17436;50.338;8.810;2022-07-21T05:22:17;22.80;75.20
20438;DHT22;17436;50.338;8.810;2022-07-21T05:24:43;22.50;84.00
20438;DHT22;17436;50.338;8.810;2022-07-21T05:27:10;22.40;88.70
20438;DHT22;17436;50.338;8.810;2022-07-21T05:29:37;22.10;89.30
20438;DHT22;17436;50.338;8.810;2022-07-21T05:32:04;22.20;91.70
20438;DHT22;17436;50.338;8.810;2022-07-21T05:34:31;22.00;91.00
20438;DHT22;17436;50.338;8.810;2022-07-21T05:36:59;21.90;92.80
20438;DHT22;17436;50.338;8.810;2022-07-21T05:39:27;22.40;86.90
20438;DHT22;17436;50.338;8.810;2022-07-21T05:41:54;23.20;79.20
20438;DHT22;17436;50.338;8.810;2022-07-21T05:44:21;23.70;72.60
20438;DHT22;17436;50.338;8.810;2022-07-21T05:46:47;24.20;70.50
20438;DHT22;17436;50.338;8.810;2022-07-21T05:49:15;24.50;63.70
20438;DHT22;17436;50.338;8.810;2022-07-21T05:51:41;24.80;58.30
20438;DHT22;17436;50.338;8.810;2022-07-21T05:54:08;24.90;60.50
20438;DHT22;17436;50.338;8.810;2022-07-21T05:56:36;24.90;58.70
20438;DHT22;17436;50.338;8.810;2022-07-21T05:59:03;24.90;56.30
20438;DHT22;17436;50.338;8.810;2022-07-21T06:01:29;24.70;61.30
20438;DHT22;17436;50.338;8.810;2022-07-21T06:03:56;24.80;57.00
20438;DHT22;17436;50.338;8.810;2022-07-21T06:06:23;24.80;61.40
20438;DHT22;17436;50.338;8.810;2022-07-21T06:08:50;24.80;51.20
20438;DHT22;17436;50.338;8.810;2022-07-21T06:11:19;24.60;54.10
20438;DHT22;17436;50.338;8.810;2022-07-21T06:13:47;24.30;54.30
20438;DHT22;17436;50.338;8.810;2022-07-21T06:16:14;24.40;54.40
20438;DHT22;17436;50.338;8.810;2022-07-21T06:18:41;24.30;55.00
20438;DHT22;17436;50.338;8.810;2022-07-21T06:21:07;24.60;57.40
20438;DHT22;17436;50.338;8.810;2022-07-21T06:23:34;24.60;53.10
20438;DHT22;17436;50.338;8.810;2022-07-21T06:26:01;24.30;51.10
20438;DHT22;17436;50.338;8.810;2022-07-21T06:28:28;24.10;50.40
20438;DHT22;17436;50.338;8.810;2022-07-21T06:30:57;23.70;54.60
20438;DHT22;17436;50.338;8.810;2022-07-21T06:33:25;23.90;57.90
20438;DHT22;17436;50.338;8.810;2022-07-21T06:35:51;23.90;49.40
20438;DHT22;17436;50.338;8.810;2022-07-21T06:38:18;23.60;58.00
20438;DHT22;17436;50.338;8.810;2022-07-21T06:40:45;23.40;60.10
20438;DHT22;17436;50.338;8.810;2022-07-21T06:43:12;23.20;66.40
20438;DHT22;17436;50.338;8.810;2022-07-21T06:45:39;23.30;69.10
20438;DHT22;17436;50.338;8.810;2022-07-21T06:48:08;23.20;65.20
20438;DHT22;17436;50.338;8.810;2022-07-21T06:50:35;23.10;65.90
20438;DHT22;17436;50.338;8.810;2022-07-21T06:53:06;23.00;63.70
20438;DHT22;17436;50.338;8.810;2022-07-21T06:55:34;23.10;71.10
20438;DHT22;17436;50.338;8.810;2022-07-21T06:58:08;23.20;67.50
20438;DHT22;17436;50.338;8.810;2022-07-21T07:00:35;23.60;65.50
20438;DHT22;17436;50.338;8.810;2022-07-21T07:03:03;23.30;62.80
20438;DHT22;17436;50.338;8.810;2022-07-21T07:05:31;23.40;65.40
20438;DHT22;17436;50.338;8.810;2022-07-21T07:07:59;23.60;64.00
20438;DHT22;17436;50.338;8.810;2022-07-21T07:10:26;23.60;60.30
20438;DHT22;17436;50.338;8.810;2022-07-21T07:12:53;24.10;60.70
20438;DHT22;17436;50.338;8.810;2022-07-21T07:15:20;24.50;56.50
20438;DHT22;17436;50.338;8.810;2022-07-21T07:17:47;24.60;57.20
20438;DHT22;17436;50.338;8.810;2022-07-21T07:20:14;24.80;55.40
20438;DHT22;17436;50.338;8.810;2022-07-21T07:22:42;25.20;54.90
20438;DHT22;17436;50.338;8.810;2022-07-21T07:25:09;25.60;46.20
20438;DHT22;17436;50.338;8.810;2022-07-21T07:27:36;25.80;37.10
20438;DHT22;17436;50.338;8.810;2022-07-21T07:30:03;25.50;38.40
20438;DHT22;17436;50.338;8.810;2022-07-21T07:32:30;25.70;39.10
20438;DHT22;17436;50.338;8.810;2022-07-21T07:35:02;25.70;36.00
20438;DHT22;17436;50.338;8.810;2022-07-21T07:37:29;25.80;40.30
20438;DHT22;17436;50.338;8.810;2022-07-21T07:39:57;25.10;37.40
20438;DHT22;17436;50.338;8.810;2022-07-21T07:42:24;24.60;44.30
20438;DHT22;17436;50.338;8.810;2022-07-21T07:44:51;24.50;47.20
20438;DHT22;17436;50.338;8.810;2022-07-21T07:47:19;24.40;45.10
20438;DHT22;17436;50.338;8.810;2022-07-21T07:49:46;24.40;46.30
20438;DHT22;17436;50.338;8.810;2022-07-21T07:52:14;25.20;43.20
20438;DHT22;17436;50.338;8.810;2022-07-21T07:54:41;25.80;41.30
20438;DHT22;17436;50.338;8.810;2022-07-21T07:57:09;26.30;33.80
20438;DHT22;17436;50.338;8.810;2022-07-21T07:59:36;26.70;31.20
20438;DHT22;17436;50.338;8.810;2022-07-21T08:02:03;26.70;30.50
20438;DHT22;17436;50.338;8.810;2022-07-21T08:04:30;26.60;30.50
20438;DHT22;17436;50.338;8.810;2022-07-21T08:06:58;26.30;26.20
20438;DHT22;17436;50.338;8.810;2022-07-21T08:09:26;26.20;26.70
20438;DHT22;17436;50.338;8.810;2022-07-21T08:11:53;29.30;14.60
20438;DHT22;17436;50.338;8.810;2022-07-21T08:14:21;32.80;1.00
20438;DHT22;17436;50.338;8.810;2022-07-21T08:16:48;28.90;2.20
20438;DHT22;17436;50.338;8.810;2022-07-21T08:19:15;27.10;12.80
20438;DHT22;17436;50.338;8.810;2022-07-21T08:21:41;26.20;18.60
20438;DHT22;17436;50.338;8.810;2022-07-21T08:24:08;25.40;25.80
20438;DHT22;17436;50.338;8.810;2022-07-21T08:26:35;25.10;29.50
20438;DHT22;17436;50.338;8.810;2022-07-21T08:29:03;24.80;33.10
20438;DHT22;17436;50.338;8.810;2022-07-21T08:31:31;24.60;33.30
20438;DHT22;17436;50.338;8.810;2022-07-21T08:33:58;24.40;30.40
20438;DHT22;17436;50.338;8.810;2022-07-21T08:36:24;24.10;35.70
20438;DHT22;17436;50.338;8.810;2022-07-21T08:38:52;24.30;41.30
20438;DHT22;17436;50.338;8.810;2022-07-21T08:41:19;24.50;36.80
20438;DHT22;17436;50.338;8.810;2022-07-21T08:43:48;24.40;29.50
20438;DHT22;17436;50.338;8.810;2022-07-21T08:46:15;24.20;37.60
20438;DHT22;17436;50.338;8.810;2022-07-21T08:48:44;24.30;35.90
20438;DHT22;17436;50.338;8.810;2022-07-21T08:51:11;24.30;33.90
20438;DHT22;17436;50.338;8.810;2022-07-21T08:53:38;24.20;36.00
20438;DHT22;17436;50.338;8.810;2022-07-21T08:56:05;24.10;34.50
20438;DHT22;17436;50.338;8.810;2022-07-21T08:58:32;24.00;42.50
20438;DHT22;17436;50.338;8.810;2022-07-21T09:01:01;24.00;40.30
20438;DHT22;17436;50.338;8.810;2022-07-21T09:03:29;23.80;41.40
20438;DHT22;17436;50.338;8.810;2022-07-21T09:06:04;24.10;42.80
20438;DHT22;17436;50.338;8.810;2022-07-21T09:08:34;24.80;47.00
20438;DHT22;17436;50.338;8.810;2022-07-21T09:11:15;25.40;35.70
20438;DHT22;17436;50.338;8.810;2022-07-21T09:13:43;25.90;29.50
20438;DHT22;17436;50.338;8.810;2022-07-21T09:16:10;26.00;22.70
20438;DHT22;17436;50.338;8.810;2022-07-21T09:18:55;26.10;21.80
20438;DHT22;17436;50.338;8.810;2022-07-21T09:21:23;25.50;21.10
20438;DHT22;17436;50.338;8.810;2022-07-21T09:23:50;25.60;20.60
20438;DHT22;17436;50.338;8.810;2022-07-21T09:26:17;25.90;17.70
20438;DHT22;17436;50.338;8.810;2022-07-21T09:28:44;25.60;17.10
20438;DHT22;17436;50.338;8.810;2022-07-21T09:31:11;25.30;14.60
20438;DHT22;17436;50.338;8.810;2022-07-21T09:33:40;25.00;17.90
20438;DHT22;17436;50.338;8.810;2022-07-21T09:36:10;24.90;19.50
20438;DHT22;17436;50.338;8.810;2022-07-21T09:38:41;24.40;24.50
20438;DHT22;17436;50.338;8.810;2022-07-21T09:41:11;24.10;24.40
20438;DHT22;17436;50.338;8.810;2022-07-21T09:43:40;24.00;25.90
20438;DHT22;17436;50.338;8.810;2022-07-21T09:46:16;24.00;29.00
20438;DHT22;17436;50.338;8.810;2022-07-21T09:48:45;24.10;31.40
20438;DHT22;17436;50.338;8.810;2022-07-21T09:51:23;24.60;27.30
20438;DHT22;17436;50.338;8.810;2022-07-21T09:53:54;25.00;25.00
20438;DHT22;17436;50.338;8.810;2022-07-21T09:56:22;25.40;25.80
20438;DHT22;17436;50.338;8.810;2022-07-21T09:58:53;25.70;21.80
20438;DHT22;17436;50.338;8.810;2022-07-21T10:01:22;25.90;18.10
20438;DHT22;17436;50.338;8.810;2022-07-21T10:03:49;26.20;20.00
20438;DHT22;17436;50.338;8.810;2022-07-21T10:06:22;26.30;18.20
20438;DHT22;17436;50.338;8.810;2022-07-21T10:08:51;26.10;12.90
20438;DHT22;17436;50.338;8.810;2022-07-21T10:11:21;25.60;14.80
20438;DHT22;17436;50.338;8.810;2022-07-21T10:13:49;25.50;19.50
20438;DHT22;17436;50.338;8.810;2022-07-21T10:16:15;25.40;16.70
20438;DHT22;17436;50.338;8.810;2022-07-21T10:18:57;25.40;16.30
20438;DHT22;17436;50.338;8.810;2022-07-21T10:21:34;25.40;14.70
20438;DHT22;17436;50.338;8.810;2022-07-21T10:24:04;25.40;15.50
20438;DHT22;17436;50.338;8.810;2022-07-21T10:26:31;26.20;13.20
20438;DHT22;17436;50.338;8.810;2022-07-21T10:28:59;26.80;13.90
20438;DHT22;17436;50.338;8.810;2022-07-21T10:31:28;26.80;11.80
20438;DHT22;17436;50.338;8.810;2022-07-21T10:33:58;26.60;12.30
20438;DHT22;17436;50.338;8.810;2022-07-21T10:36:44;26.20;11.80
20438;DHT22;17436;50.338;8.810;2022-07-21T10:39:27;25.70;6.90
20438;DHT22;17436;50.338;8.810;2022-07-21T10:41:57;25.20;13.80
20438;DHT22;17436;50.338;8.810;2022-07-21T10:44:44;25.10;17.40
20438;DHT22;17436;50.338;8.810;2022-07-21T10:47:12;24.70;22.60
20438;DHT22;17436;50.338;8.810;2022-07-21T10:49:50;24.50;36.10
20438;DHT22;17436;50.338;8.810;2022-07-21T10:55:25;24.60;48.60
20438;DHT22;17436;50.338;8.810;2022-07-21T10:58:14;24.80;48.20
20438;DHT22;17436;50.338;8.810;2022-07-21T11:00:45;24.80;50.60
20438;DHT22;17436;50.338;8.810;2022-07-21T11:03:18;25.10;53.90
20438;DHT22;17436;50.338;8.810;2022-07-21T11:06:14;25.40;43.50
20438;DHT22;17436;50.338;8.810;2022-07-21T11:08:42;25.80;44.10
20438;DHT22;17436;50.338;8.810;2022-07-21T11:11:12;25.80;31.50
20438;DHT22;17436;50.338;8.810;2022-07-21T11:14:02;25.70;32.40
20438;DHT22;17436;50.338;8.810;2022-07-21T11:19:39;25.20;22.20
20438;DHT22;17436;50.338;8.810;2022-07-21T11:22:10;25.10;23.30
20438;DHT22;17436;50.338;8.810;2022-07-21T11:24:39;25.00;26.00
20438;DHT22;17436;50.338;8.810;2022-07-21T11:27:09;24.80;23.20
20438;DHT22;17436;50.338;8.810;2022-07-21T11:29:38;24.90;27.20
20438;DHT22;17436;50.338;8.810;2022-07-21T11:32:06;24.80;19.90
20438;DHT22;17436;50.338;8.810;2022-07-21T11:34:41;25.30;21.60
20438;DHT22;17436;50.338;8.810;2022-07-21T11:37:10;25.90;15.00
20438;DHT22;17436;50.338;8.810;2022-07-21T11:39:37;26.30;11.70
20438;DHT22;17436;50.338;8.810;2022-07-21T11:42:05;26.40;7.60
20438;DHT22;17436;50.338;8.810;2022-07-21T11:44:33;26.50;8.30
20438;DHT22;17436;50.338;8.810;2022-07-21T11:47:02;26.60;7.60
20438;DHT22;17436;50.338;8.810;2022-07-21T11:49:29;26.50;10.00
20438;DHT22;17436;50.338;8.810;2022-07-21T11:52:00;26.60;9.80
20438;DHT22;17436;50.338;8.810;2022-07-21T11:54:33;26.80;8.40
20438;DHT22;17436;50.338;8.810;2022-07-21T11:57:02;26.60;7.10
20438;DHT22;17436;50.338;8.810;2022-07-21T11:59:30;26.10;5.00
20438;DHT22;17436;50.338;8.810;2022-07-21T12:02:01;25.70;7.00
20438;DHT22;17436;50.338;8.810;2022-07-21T12:04:30;25.60;6.50
20438;DHT22;17436;50.338;8.810;2022-07-21T12:06:58;25.60;7.40
20438;DHT22;17436;50.338;8.810;2022-07-21T12:09:25;25.40;7.40
20438;DHT22;17436;50.338;8.810;2022-07-21T12:11:52;25.30;6.70
20438;DHT22;17436;50.338;8.810;2022-07-21T12:14:20;25.30;6.40
20438;DHT22;17436;50.338;8.810;2022-07-21T12:16:49;25.30;7.70
20438;DHT22;17436;50.338;8.810;2022-07-21T12:19:18;25.10;7.60
20438;DHT22;17436;50.338;8.810;2022-07-21T12:21:46;25.00;5.20
20438;DHT22;17436;50.338;8.810;2022-07-21T12:24:13;25.10;7.50
20438;DHT22;17436;50.338;8.810;2022-07-21T12:26:40;25.20;10.50
20438;DHT22;17436;50.338;8.810;2022-07-21T12:29:07;25.30;10.50
20438;DHT22;17436;50.338;8.810;2022-07-21T12:31:35;25.40;8.40
20438;DHT22;17436;50.338;8.810;2022-07-21T12:34:14;25.40;7.10
20438;DHT22;17436;50.338;8.810;2022-07-21T12:36:43;25.60;6.00
20438;DHT22;17436;50.338;8.810;2022-07-21T12:39:16;25.60;5.40
20438;DHT22;17436;50.338;8.810;2022-07-21T12:42:27;25.60;5.50
20438;DHT22;17436;50.338;8.810;2022-07-21T12:44:55;25.60;5.50
20438;DHT22;17436;50.338;8.810;2022-07-21T12:47:22;25.60;8.50
20438;DHT22;17436;50.338;8.810;2022-07-21T12:49:57;25.60;8.30
20438;DHT22;17436;50.338;8.810;2022-07-21T12:52:27;25.60;7.30
20438;DHT22;17436;50.338;8.810;2022-07-21T12:54:56;25.60;7.30
20438;DHT22;17436;50.338;8.810;2022-07-21T12:57:26;25.40;8.60
20438;DHT22;17436;50.338;8.810;2022-07-21T12:59:54;25.50;9.60
20438;DHT22;17436;50.338;8.810;2022-07-21T13:02:21;25.60;10.00
20438;DHT22;17436;50.338;8.810;2022-07-21T13:04:48;25.70;8.30
20438;DHT22;17436;50.338;8.810;2022-07-21T13:07:14;25.90;7.90
20438;DHT22;17436;50.338;8.810;2022-07-21T13:09:43;26.20;6.50
20438;DHT22;17436;50.338;8.810;2022-07-21T13:12:11;26.10;2.10
20438;DHT22;17436;50.338;8.810;2022-07-21T13:14:38;26.00;5.20
20438;DHT22;17436;50.338;8.810;2022-07-21T13:17:04;25.80;6.60
20438;DHT22;17436;50.338;8.810;2022-07-21T13:19:31;25.80;4.50
20438;DHT22;17436;50.338;8.810;2022-07-21T13:21:59;25.90;3.40
20438;DHT22;17436;50.338;8.810;2022-07-21T13:24:28;26.20;2.70
20438;DHT22;17436;50.338;8.810;2022-07-21T13:26:56;26.30;1.00
20438;DHT22;17436;50.338;8.810;2022-07-21T13:29:22;26.10;1.00
20438;DHT22;17436;50.338;8.810;2022-07-21T13:31:49;26.10;1.00
20438;DHT22;17436;50.338;8.810;2022-07-21T13:34:16;26.10;1.00
20438;DHT22;17436;50.338;8.810;2022-07-21T13:36:43;26.30;1.00
20438;DHT22;17436;50.338;8.810;2022-07-21T13:39:09;26.50;1.00
20438;DHT22;17436;50.338;8.810;2022-07-21T13:41:36;26.60;1.00
20438;DHT22;17436;50.338;8.810;2022-07-21T13:44:05;26.40;1.00
20438;DHT22;17436;50.338;8.810;2022-07-21T13:46:32;26.40;1.00
20438;DHT22;17436;50.338;8.810;2022-07-21T13:48:58;26.50;1.00
20438;DHT22;17436;50.338;8.810;2022-07-21T13:51:25;26.70;1.00
20438;DHT22;17436;50.338;8.810;2022-07-21T13:53:53;26.90;1.00
20438;DHT22;17436;50.338;8.810;2022-07-21T13:56:20;26.80;1.00
20438;DHT22;17436;50.338;8.810;2022-07-21T13:58:47;26.80;1.00
20438;DHT22;17436;50.338;8.810;2022-07-21T14:01:15;26.70;1.00
20438;DHT22;17436;50.338;8.810;2022-07-21T14:03:43;26.80;1.00
20438;DHT22;17436;50.338;8.810;2022-07-21T14:06:10;26.80;1.00
20438;DHT22;17436;50.338;8.810;2022-07-21T14:08:37;26.90;1.00
20438;DHT22;17436;50.338;8.810;2022-07-21T14:11:05;26.70;1.00
20438;DHT22;17436;50.338;8.810;2022-07-21T14:13:32;26.60;1.00
20438;DHT22;17436;50.338;8.810;2022-07-21T14:16:02;26.60;1.00
20438;DHT22;17436;50.338;8.810;2022-07-21T14:18:31;26.60;1.00
20438;DHT22;17436;50.338;8.810;2022-07-21T14:20:58;26.50;1.00
20438;DHT22;17436;50.338;8.810;2022-07-21T14:23:25;26.60;1.00
20438;DHT22;17436;50.338;8.810;2022-07-21T14:25:53;26.80;1.00
20438;DHT22;17436;50.338;8.810;2022-07-21T14:28:21;27.00;1.00
20438;DHT22;17436;50.338;8.810;2022-07-21T14:30:48;27.00;1.00
20438;DHT22;17436;50.338;8.810;2022-07-21T14:33:14;26.90;1.00
20438;DHT22;17436;50.338;8.810;2022-07-21T14:35:43;26.80;1.00
20438;DHT22;17436;50.338;8.810;2022-07-21T14:38:09;26.80;1.00
20438;DHT22;17436;50.338;8.810;2022-07-21T14:40:37;26.70;1.00
20438;DHT22;17436;50.338;8.810;2022-07-21T14:43:04;26.60;1.00
20438;DHT22;17436;50.338;8.810;2022-07-21T14:45:31;26.50;1.00
20438;DHT22;17436;50.338;8.810;2022-07-21T14:47:59;26.40;1.00
20438;DHT22;17436;50.338;8.810;2022-07-21T14:50:27;26.30;1.00
20438;DHT22;17436;50.338;8.810;2022-07-21T14:52:56;26.10;1.00
20438;DHT22;17436;50.338;8.810;2022-07-21T14:55:24;26.10;1.00
20438;DHT22;17436;50.338;8.810;2022-07-21T14:57:51;26.10;1.00
20438;DHT22;17436;50.338;8.810;2022-07-21T15:00:19;26.00;1.00
20438;DHT22;17436;50.338;8.810;2022-07-21T15:02:46;25.90;1.00
20438;DHT22;17436;50.338;8.810;2022-07-21T15:05:13;25.90;1.00
20438;DHT22;17436;50.338;8.810;2022-07-21T15:07:39;25.90;1.00
20438;DHT22;17436;50.338;8.810;2022-07-21T15:10:08;25.90;1.00
20438;DHT22;17436;50.338;8.810;2022-07-21T15:12:35;25.90;1.00
20438;DHT22;17436;50.338;8.810;2022-07-21T15:15:02;26.00;1.00
20438;DHT22;17436;50.338;8.810;2022-07-21T15:17:29;26.10;1.00
20438;DHT22;17436;50.338;8.810;2022-07-21T15:19:58;26.20;1.00
20438;DHT22;17436;50.338;8.810;2022-07-21T15:22:26;26.20;1.00
20438;DHT22;17436;50.338;8.810;2022-07-21T15:24:56;26.30;1.00
20438;DHT22;17436;50.338;8.810;2022-07-21T15:27:25;26.30;1.00
20438;DHT22;17436;50.338;8.810;2022-07-21T15:29:58;26.30;1.00
20438;DHT22;17436;50.338;8.810;2022-07-21T15:32:28;26.30;1.00
20438;DHT22;17436;50.338;8.810;2022-07-21T15:34:55;26.20;1.00
20438;DHT22;17436;50.338;8.810;2022-07-21T15:37:21;26.20;1.00
20438;DHT22;17436;50.338;8.810;2022-07-21T15:39:48;26.20;1.00
20438;DHT22;17436;50.338;8.810;2022-07-21T15:42:15;26.20;1.00
20438;DHT22;17436;50.338;8.810;2022-07-21T15:44:43;26.30;1.00
20438;DHT22;17436;50.338;8.810;2022-07-21T15:47:10;26.20;1.00
20438;DHT22;17436;50.338;8.810;2022-07-21T15:49:36;26.20;1.00